Time;durP1;ratioP1;P1;durP2;ratioP2;P2;SDS_P1;SDS_P2;PMS_P1;PMS_P2;Temp;Humidity;BMP_temperature;BMP_pressure;BME280_temperature;BME280_humidity;BME280_pressure;Samples;Min_cycle;Max_cycle;Signal;HPM_P1;HPM_P2
2022/03/31 00:00:49;;;;;;;49.87;25.23;;;8.80;99.90;;;;;;4070755;29;20612;-88
2022/03/31 00:02:50;;;;;;;40.13;23.97;;;8.60;99.90;;;;;;4039508;29;20182;-88
2022/03/31 00:04:50;;;;;;;44.17;23.63;;;8.60;99.90;;;;;;4070742;29;20199;-88
2022/03/31 00:06:51;;;;;;;45.27;24.03;;;8.70;99.90;;;;;;4039548;29;20198;-88
2022/03/31 00:08:52;;;;;;;42.43;23.43;;;8.60;99.90;;;;;;4039604;29;20248;-88
2022/03/31 00:10:55;;;;;;;41.20;23.37;;;8.50;99.90;;;;;;4055347;29;20185;-88
2022/03/31 00:12:58;;;;;;;40.97;24.43;;;8.60;99.90;;;;;;4039703;29;20186;-86
2022/03/31 00:14:59;;;;;;;42.03;23.43;;;8.60;99.90;;;;;;4039627;29;20558;-87
2022/03/31 00:16:59;;;;;;;39.17;23.90;;;8.80;99.90;;;;;;4039196;29;20217;-87
2022/03/31 00:19:00;;;;;;;40.70;23.57;;;8.80;99.90;;;;;;4039398;29;20281;-87
2022/03/31 00:21:01;;;;;;;41.37;23.53;;;8.80;99.90;;;;;;4054770;29;20508;-87
2022/03/31 00:23:02;;;;;;;42.30;23.43;;;8.90;99.90;;;;;;4039323;29;20231;-87
2022/03/31 00:25:04;;;;;;;39.57;23.03;;;9.20;99.90;;;;;;4070474;29;20259;-87
2022/03/31 00:27:05;;;;;;;41.80;24.67;;;9.30;99.90;;;;;;4038935;29;20253;-87
2022/03/31 00:29:06;;;;;;;37.67;23.27;;;9.40;99.90;;;;;;4068970;29;20196;-87
2022/03/31 00:31:07;;;;;;;41.53;23.80;;;9.50;99.90;;;;;;4039348;29;20654;-86
2022/03/31 00:33:08;;;;;;;40.63;23.80;;;9.60;99.90;;;;;;4054703;29;20284;-87
2022/03/31 00:35:12;;;;;;;39.60;23.80;;;9.70;99.90;;;;;;4039426;29;20185;-87
2022/03/31 00:37:13;;;;;;;38.40;22.77;;;9.80;99.90;;;;;;4038988;29;20229;-87
2022/03/31 00:39:29;;;;;;;35.70;23.00;;;9.90;99.90;;;;;;4054809;29;20205;-87
2022/03/31 00:41:38;;;;;;;47.83;24.43;;;9.90;99.90;;;;;;4054498;29;20216;-87
2022/03/31 00:43:38;;;;;;;41.00;25.40;;;10.10;99.90;;;;;;4038959;29;20259;-87
2022/03/31 00:45:48;;;;;;;43.60;26.10;;;10.10;99.90;;;;;;4054683;29;20189;-87
2022/03/31 00:47:50;;;;;;;46.97;25.40;;;10.10;99.90;;;;;;4054506;29;20240;-88
2022/03/31 00:49:50;;;;;;;50.13;25.52;;;10.00;99.90;;;;;;4054878;29;20665;-87
2022/03/31 00:51:53;;;;;;;45.23;26.00;;;10.00;99.90;;;;;;4038788;29;20189;-87
2022/03/31 00:53:53;;;;;;;46.77;24.60;;;10.10;99.90;;;;;;4054316;29;20177;-86
2022/03/31 00:55:55;;;;;;;42.58;24.65;;;9.90;99.90;;;;;;4054403;29;20296;-87
2022/03/31 00:57:56;;;;;;;44.42;23.75;;;9.90;99.90;;;;;;4054301;29;20188;-87
2022/03/31 00:59:57;;;;;;;46.65;26.55;;;9.90;99.90;;;;;;4069832;29;20203;-87
2022/03/31 01:01:59;;;;;;;41.43;25.40;;;9.90;99.90;;;;;;4038850;29;20174;-87
2022/03/31 01:04:00;;;;;;;44.17;23.90;;;9.90;99.90;;;;;;4038926;29;20233;-87
2022/03/31 01:06:01;;;;;;;41.43;24.23;;;9.80;99.90;;;;;;4038777;29;20619;-87
2022/03/31 01:08:02;;;;;;;38.17;23.50;;;9.60;99.90;;;;;;4054169;29;20260;-86
2022/03/31 01:10:05;;;;;;;37.90;24.47;;;9.60;99.90;;;;;;4054206;29;20721;-87
2022/03/31 01:12:06;;;;;;;39.57;22.83;;;9.40;99.90;;;;;;4054375;29;20669;-87
2022/03/31 01:14:10;;;;;;;35.17;21.67;;;9.10;99.90;;;;;;4184393;23;20229;-96
2022/03/31 01:16:13;;;;;;;34.50;20.57;;;8.90;99.90;;;;;;4045411;29;20252;-95
2022/03/31 01:18:15;;;;;;;29.83;19.67;;;8.90;99.90;;;;;;4045856;29;20192;-94
2022/03/31 01:20:20;;;;;;;32.80;19.50;;;8.80;99.90;;;;;;4044264;29;20201;-92
2022/03/31 01:22:32;;;;;;;35.57;19.10;;;8.70;99.90;;;;;;4030357;29;20238;-94
2022/03/31 01:24:38;;;;;;;30.70;18.57;;;8.90;99.90;;;;;;4044043;29;20646;-95
2022/03/31 01:26:48;;;;;;;39.30;18.77;;;8.90;99.90;;;;;;4031800;29;20258;-95
2022/03/31 01:28:51;;;;;;;35.77;18.80;;;8.90;99.90;;;;;;4028113;29;20229;-95
2022/03/31 01:30:56;;;;;;;31.40;18.37;;;8.80;99.90;;;;;;4045257;29;20213;-95
2022/03/31 01:32:57;;;;;;;30.50;17.10;;;8.70;99.90;;;;;;4042299;29;20182;-96
2022/03/31 01:35:01;;;;;;;27.60;16.63;;;8.80;99.90;;;;;;4045568;29;20182;-95
2022/03/31 01:37:08;;;;;;;34.97;16.97;;;8.80;99.90;;;;;;4043742;29;20233;-95
2022/03/31 01:39:14;;;;;;;29.37;17.17;;;8.60;99.90;;;;;;4032193;29;20217;-95
2022/03/31 01:41:17;;;;;;;29.40;17.17;;;8.60;99.90;;;;;;4042839;29;20184;-93
2022/03/31 01:43:25;;;;;;;26.50;15.80;;;8.60;99.90;;;;;;4044113;29;20182;-95
2022/03/31 01:45:43;;;;;;;28.90;16.20;;;8.60;99.90;;;;;;4043120;29;20174;-95
2022/03/31 01:47:50;;;;;;;30.07;16.80;;;8.70;99.90;;;;;;4043124;29;20205;-95
2022/03/31 01:50:09;;;;;;;27.67;17.90;;;8.70;99.90;;;;;;4043032;29;20176;-95
2022/03/31 01:52:27;;;;;;;29.50;17.10;;;8.70;99.90;;;;;;4043796;29;20206;-96
2022/03/31 01:54:36;;;;;;;29.13;15.30;;;8.80;99.90;;;;;;4043996;29;20189;-92
2022/03/31 01:57:03;;;;;;;31.83;16.27;;;9.00;99.90;;;;;;4045202;29;20185;-95
2022/03/31 01:59:15;;;;;;;29.93;16.87;;;9.00;99.90;;;;;;4043916;29;20193;-94
2022/03/31 02:01:19;;;;;;;29.53;16.23;;;9.10;99.90;;;;;;4045089;29;20264;-95
2022/03/31 02:03:23;;;;;;;29.03;16.03;;;9.20;99.90;;;;;;4045786;29;20177;-95
2022/03/31 02:05:34;;;;;;;23.33;14.50;;;9.10;99.90;;;;;;4045614;29;20242;-94
2022/03/31 02:07:38;;;;;;;30.40;15.10;;;8.70;99.90;;;;;;4042182;29;20217;-93
2022/03/31 02:09:41;;;;;;;28.53;15.00;;;8.80;99.90;;;;;;4013621;29;20205;-95
2022/03/31 02:11:45;;;;;;;25.40;15.17;;;8.60;99.90;;;;;;4058801;29;20185;-94
2022/03/31 02:13:52;;;;;;;22.60;12.53;;;8.90;99.90;;;;;;4044652;29;20722;-95
2022/03/31 02:16:03;;;;;;;19.63;10.93;;;8.90;99.90;;;;;;4043641;29;20224;-95
2022/03/31 02:18:09;;;;;;;17.03;11.07;;;8.70;99.90;;;;;;4044033;29;20165;-93
2022/03/31 02:20:16;;;;;;;16.33;10.37;;;8.90;99.90;;;;;;4043031;29;20205;-94
2022/03/31 02:22:23;;;;;;;22.27;11.20;;;9.20;99.90;;;;;;4042319;29;20275;-95
2022/03/31 02:24:27;;;;;;;21.13;10.63;;;9.70;99.90;;;;;;4027892;29;20209;-95
2022/03/31 02:26:39;;;;;;;18.97;10.13;;;9.40;99.90;;;;;;4045662;29;20202;-94
2022/03/31 02:28:58;;;;;;;17.73;10.27;;;9.20;99.90;;;;;;4044387;29;20225;-94
2022/03/31 02:31:10;;;;;;;21.23;10.97;;;9.40;99.90;;;;;;4059935;29;20184;-94
2022/03/31 02:33:15;;;;;;;21.13;10.60;;;9.60;99.90;;;;;;4058680;29;20217;-94
2022/03/31 02:35:20;;;;;;;22.37;10.60;;;9.70;99.90;;;;;;4043161;29;20162;-94
2022/03/31 02:37:28;;;;;;;17.83;10.57;;;9.60;99.90;;;;;;4043468;29;20213;-95
2022/03/31 02:39:35;;;;;;;23.17;12.13;;;9.40;99.90;;;;;;4042337;29;20181;-94
2022/03/31 02:41:38;;;;;;;19.37;13.10;;;9.40;99.90;;;;;;4058165;29;20542;-94
2022/03/31 02:43:57;;;;;;;27.53;14.50;;;9.40;99.90;;;;;;4061311;29;20168;-95
2022/03/31 02:46:01;;;;;;;27.03;13.50;;;9.20;99.90;;;;;;4042743;29;20177;-94
2022/03/31 02:48:08;;;;;;;21.37;12.10;;;8.50;99.90;;;;;;4042703;29;20689;-93
2022/03/31 02:50:43;;;;;;;17.83;10.33;;;8.30;99.90;;;;;;4046363;29;20252;-95
2022/03/31 02:56:06;;;;;;;15.70;8.10;;;8.50;99.90;;;;;;4046018;29;20189;-94
2022/03/31 03:01:10;;;;;;;13.23;7.70;;;8.30;99.90;;;;;;4035819;29;20200;-95
2022/03/31 03:03:39;;;;;;;11.97;7.73;;;8.20;99.90;;;;;;4043619;29;20197;-94
2022/03/31 03:06:50;;;;;;;14.10;6.53;;;8.20;99.90;;;;;;4059387;29;20216;-94
2022/03/31 03:09:17;;;;;;;11.47;6.53;;;7.60;99.90;;;;;;4022713;29;20226;-95
2022/03/31 03:11:29;;;;;;;11.07;6.67;;;7.10;99.90;;;;;;4044454;29;20189;-95
2022/03/31 03:16:59;;;;;;;16.97;8.40;;;6.60;99.90;;;;;;3990207;29;20223;-95
2022/03/31 03:19:07;;;;;;;13.23;8.50;;;6.50;99.90;;;;;;3998835;29;20243;-94
2022/03/31 03:24:01;;;;;;;19.30;9.87;;;6.40;99.90;;;;;;4016480;29;20194;-94
2022/03/31 03:26:22;;;;;;;17.80;8.43;;;6.30;99.90;;;;;;4022928;29;20246;-94
2022/03/31 03:28:36;;;;;;;15.47;10.20;;;6.30;99.90;;;;;;4044792;29;20229;-94
2022/03/31 03:31:00;;;;;;;23.47;10.43;;;6.30;99.90;;;;;;4045694;29;20202;-96
2022/03/31 03:33:07;;;;;;;20.57;12.00;;;6.40;99.90;;;;;;4044782;29;20202;-94
2022/03/31 03:35:19;;;;;;;17.80;10.43;;;6.20;99.90;;;;;;4030304;29;20246;-93
2022/03/31 03:37:40;;;;;;;13.93;9.77;;;5.90;99.90;;;;;;4044956;29;20205;-94
2022/03/31 03:39:50;;;;;;;12.43;9.17;;;5.70;99.90;;;;;;4046328;29;20181;-94
2022/03/31 03:42:35;;;;;;;14.73;10.40;;;5.60;99.90;;;;;;4045306;29;20186;-93
2022/03/31 03:44:41;;;;;;;28.00;14.93;;;5.50;99.90;;;;;;4027811;29;20194;-94
2022/03/31 03:47:07;;;;;;;20.80;12.53;;;5.50;99.90;;;;;;4028722;29;20198;-96
2022/03/31 03:49:08;;;;;;;18.13;10.47;;;5.40;99.90;;;;;;4044256;29;20194;-94
2022/03/31 03:51:19;;;;;;;23.93;15.00;;;5.40;99.90;;;;;;4046538;29;20174;-92
2022/03/31 03:53:43;;;;;;;24.77;14.30;;;5.30;99.90;;;;;;4029762;29;20215;-94
2022/03/31 03:56:01;;;;;;;18.33;10.47;;;5.20;99.90;;;;;;4029833;29;20182;-95
2022/03/31 03:58:21;;;;;;;23.87;13.70;;;5.10;99.90;;;;;;4042764;29;20169;-95
2022/03/31 04:00:50;;;;;;;19.13;11.77;;;5.00;99.90;;;;;;4044869;29;20188;-95
2022/03/31 04:03:01;;;;;;;17.93;12.20;;;4.80;99.90;;;;;;4027067;29;20195;-95
2022/03/31 04:05:04;;;;;;;13.80;9.10;;;4.70;99.90;;;;;;4045469;29;20296;-95
2022/03/31 04:07:28;;;;;;;17.93;11.83;;;4.50;99.90;;;;;;4029626;29;20230;-95
2022/03/31 04:09:49;;;;;;;12.60;9.67;;;4.60;99.90;;;;;;4028593;29;20649;-94
2022/03/31 04:11:53;;;;;;;13.83;10.47;;;4.50;99.90;;;;;;4045567;29;20186;-93
2022/03/31 04:14:26;;;;;;;10.13;7.37;;;4.40;99.90;;;;;;4044924;29;20181;-94
2022/03/31 04:16:39;;;;;;;17.23;12.30;;;4.30;99.90;;;;;;4044071;29;20694;-94
2022/03/31 04:21:14;;;;;;;19.07;13.97;;;4.20;99.90;;;;;;4452883;23;20235;-94
2022/03/31 04:23:57;;;;;;;;;;;;;;;;;;;;;
2022/03/31 04:26:41;;;;;;;28.27;21.03;;;3.90;99.90;;;;;;4071401;29;20215;-95
2022/03/31 04:29:08;;;;;;;;;;;;;;;;;;;;;
2022/03/31 04:38:48;;;;;;;39.10;24.23;;;3.70;99.90;;;;;;4895208;23;21045;-95
2022/03/31 04:41:39;;;;;;;;;;;;;;;;;;;;;
2022/03/31 04:44:21;;;;;;;54.83;36.67;;;3.70;99.90;;;;;;4074084;29;20172;-95
2022/03/31 04:52:37;;;;;;;52.17;39.67;;;3.70;99.90;;;;;;4077772;29;20280;-96
2022/03/31 04:58:20;;;;;;;46.40;34.00;;;3.70;99.90;;;;;;4033027;29;20296;-94
2022/03/31 05:08:22;;;;;;;25.57;20.37;;;3.50;99.90;;;;;;4728447;23;20242;-95
2022/03/31 09:26:13;;;;;;;;;;;;;;;;;;;;;
2022/03/31 09:28:31;;;;;;;6.00;4.77;;;5.80;99.90;;;;;;4025095;29;20246;-92
2022/03/31 09:31:12;;;;;;;;;;;;;;;;;;;;;
2022/03/31 09:36:56;;;;;;;10.57;5.17;;;6.10;99.90;;;;;;3963545;29;20380;-95
2022/03/31 09:42:10;;;;;;;4.67;3.40;;;5.90;99.90;;;;;;4023150;29;20182;-95
2022/03/31 09:44:42;;;;;;;4.50;3.13;;;5.90;99.90;;;;;;4011910;29;20187;-95
2022/03/31 09:46:48;;;;;;;8.03;4.33;;;6.00;99.90;;;;;;4023870;29;20703;-95
2022/03/31 09:49:08;;;;;;;5.50;3.23;;;6.10;99.90;;;;;;4008063;29;20569;-94
2022/03/31 09:51:58;;;;;;;6.43;3.57;;;6.30;99.90;;;;;;4007880;29;20187;-95
2022/03/31 09:54:07;;;;;;;7.63;3.60;;;6.40;99.90;;;;;;4039972;29;20249;-96
2022/03/31 09:56:56;;;;;;;6.70;3.90;;;6.60;99.90;;;;;;4023905;29;20683;-95
2022/03/31 09:59:48;;;;;;;5.87;2.57;;;6.70;99.90;;;;;;4021824;29;20204;-96
2022/03/31 10:03:15;;;;;;;;;;;;;;;;;;;;;
2022/03/31 10:06:14;;;;;;;6.67;2.10;;;7.00;99.90;;;;;;4035390;29;20184;-94
2022/03/31 10:08:18;;;;;;;2.63;1.90;;;7.00;99.90;;;;;;4007823;29;20225;-96
2022/03/31 10:10:22;;;;;;;3.77;1.90;;;6.70;99.90;;;;;;4008042;29;20183;-93
2022/03/31 10:12:57;;;;;;;1.83;1.40;;;6.50;99.90;;;;;;4022437;29;20286;-94
2022/03/31 10:15:28;;;;;;;2.60;1.53;;;6.40;99.90;;;;;;4038735;29;20200;-94
2022/03/31 10:17:32;;;;;;;3.13;1.70;;;6.50;99.90;;;;;;4022632;29;20224;-94
2022/03/31 10:20:25;;;;;;;1.50;1.40;;;6.60;99.90;;;;;;4038485;29;20177;-94
2022/03/31 10:25:24;;;;;;;5.00;1.70;;;6.80;99.90;;;;;;4031672;29;20206;-94
2022/03/31 10:27:46;;;;;;;6.57;1.90;;;7.00;99.90;;;;;;4022177;29;20202;-95
2022/03/31 10:30:17;;;;;;;3.57;1.37;;;7.00;99.90;;;;;;4007822;29;20191;-94
2022/03/31 10:33:26;;;;;;;1.97;1.20;;;7.00;99.90;;;;;;4018998;29;20205;-94
2022/03/31 10:39:35;;;;;;;2.17;1.00;;;7.60;99.90;;;;;;4004324;29;20250;-94
2022/03/31 10:41:48;;;;;;;;;;;;;;;;;;;;;
2022/03/31 10:44:40;;;;;;;2.40;1.40;;;7.90;99.90;;;;;;4021739;29;20190;-94
2022/03/31 10:47:30;;;;;;;;;;;;;;;;;;;;;
2022/03/31 10:50:28;;;;;;;2.60;1.70;;;7.20;99.90;;;;;;4022306;29;20254;-94
2022/03/31 10:56:56;;;;;;;2.87;1.20;;;7.50;99.90;;;;;;4019131;29;20333;-94
2022/03/31 11:03:02;;;;;;;2.57;1.43;;;7.60;99.90;;;;;;4045331;29;20197;-95
2022/03/31 11:13:13;;;;;;;;;;;;;;;;;;;;;
2022/03/31 11:22:08;;;;;;;5.53;3.10;;;8.10;99.90;;;;;;4054173;29;20260;-94
2022/03/31 11:28:01;;;;;;;3.80;3.40;;;8.20;99.90;;;;;;4073968;29;20276;-93
2022/03/31 11:33:59;;;;;;;7.43;3.20;;;8.00;99.90;;;;;;4035656;29;20181;-95
2022/03/31 12:17:36;;;;;;;;;;;;;;;;;;;;;
2022/03/31 12:21:28;;;;;;;;;;;;;;;;;;;;;
2022/03/31 12:23:48;;;;;;;6.03;2.40;;;7.30;99.90;;;;;;4055954;29;20185;-93
